EGAA/BFS METAR and TAF weather

Enter ICAO airport designator
Station Type Date Time Source
EGAA METAR 2022/12/08 12:20 UTC NOAA

EGAA 081220Z AUTO 32007KT 9999 NCD 02/00 Q1013


Station Type Date Time Source
EGAA Decoded METAR 2022/12/08 12:20 UTC NOAA

Belfast / Aldergrove Airport, United Kingdom (EGAA) 54-39N 006-13W 0M
Dec 08, 2022 - 07:20 AM EST / 2022.12.08 1220 UTC
Wind: from the NW (320 degrees) at 8 MPH (7 KT):0
Visibility: greater than 7 mile(s):0
Temperature: 35 F (2 C)
Windchill: 28 F (-2 C):1
Dew Point: 32 F (0 C)
Relative Humidity: 86%
Pressure (altimeter): 29.91 in. Hg (1013 hPa)
ob: EGAA 081220Z AUTO 32007KT 9999 NCD 02/00 Q1013
cycle: 12

Station Type Date Time Source
EGAA TAF 2022/12/08 12:09 UTC NOAA

TAF TAF EGAA 081100Z 0812/0912 31005KT 9999 FEW020 PROB30
TEMPO 0812/0816 5000 SHRASN PROB30 0820/0824 0400 FZFG VV///
BECMG 0900/0903 0200 FZFG VV///
BECMG 0909/0912 9999 NSW BKN006

Example: see airport list